sensor_id;sensor_type;location;lat;lon;timestamp;pressure;altitude;pressure_sealevel;temperature;humidity
44359;BME280;30077;52.474;13.326;2023-02-20T00:02:44;101507.91;;;1.95;100.00
44359;BME280;30077;52.474;13.326;2023-02-20T00:07:44;101507.88;;;1.92;100.00
44359;BME280;30077;52.474;13.326;2023-02-20T00:12:44;101506.16;;;1.92;100.00
44359;BME280;30077;52.474;13.326;2023-02-20T00:17:46;101490.34;;;1.91;100.00
44359;BME280;30077;52.474;13.326;2023-02-20T00:22:46;101492.97;;;1.89;100.00
44359;BME280;30077;52.474;13.326;2023-02-20T00:27:47;101490.34;;;1.86;100.00
44359;BME280;30077;52.474;13.326;2023-02-20T00:32:48;101471.91;;;1.86;100.00
44359;BME280;30077;52.474;13.326;2023-02-20T00:37:48;101478.06;;;1.85;100.00
44359;BME280;30077;52.474;13.326;2023-02-20T00:42:49;101475.41;;;1.82;100.00
44359;BME280;30077;52.474;13.326;2023-02-20T00:47:49;101472.78;;;1.84;100.00
44359;BME280;30077;52.474;13.326;2023-02-20T00:52:49;101459.66;;;1.85;100.00
44359;BME280;30077;52.474;13.326;2023-02-20T00:57:49;101462.28;;;1.85;100.00
44359;BME280;30077;52.474;13.326;2023-02-20T01:02:50;101449.97;;;1.81;100.00
44359;BME280;30077;52.474;13.326;2023-02-20T01:07:50;101445.59;;;1.85;100.00
44359;BME280;30077;52.474;13.326;2023-02-20T01:12:50;101446.50;;;1.95;100.00
44359;BME280;30077;52.474;13.326;2023-02-20T01:17:50;101438.66;;;2.04;100.00
44359;BME280;30077;52.474;13.326;2023-02-20T01:22:50;101433.38;;;2.13;100.00
44359;BME280;30077;52.474;13.326;2023-02-20T01:27:50;101422.88;;;2.22;100.00
44359;BME280;30077;52.474;13.326;2023-02-20T01:32:51;101410.59;;;2.30;100.00
44359;BME280;30077;52.474;13.326;2023-02-20T01:37:51;101403.56;;;2.35;100.00
44359;BME280;30077;52.474;13.326;2023-02-20T01:42:51;101384.25;;;2.42;100.00
44359;BME280;30077;52.474;13.326;2023-02-20T01:47:52;101385.16;;;2.45;100.00
44359;BME280;30077;52.474;13.326;2023-02-20T01:52:53;101386.03;;;2.48;100.00
44359;BME280;30077;52.474;13.326;2023-02-20T01:58:00;101369.34;;;2.51;100.00
44359;BME280;30077;52.474;13.326;2023-02-20T02:03:04;101345.63;;;2.58;100.00
44359;BME280;30077;52.474;13.326;2023-02-20T02:08:05;101331.56;;;2.61;100.00
44359;BME280;30077;52.474;13.326;2023-02-20T02:13:07;101328.94;;;2.62;100.00
44359;BME280;30077;52.474;13.326;2023-02-20T02:23:16;101326.28;;;2.69;100.00
44359;BME280;30077;52.474;13.326;2023-02-20T02:43:46;101309.50;;;2.97;100.00
44359;BME280;30077;52.474;13.326;2023-02-20T02:48:50;101293.66;;;3.12;100.00
44359;BME280;30077;52.474;13.326;2023-02-20T02:54:05;101282.19;;;3.21;100.00
44359;BME280;30077;52.474;13.326;2023-02-20T02:59:06;101283.03;;;3.28;100.00
44359;BME280;30077;52.474;13.326;2023-02-20T03:04:09;101279.44;;;3.36;100.00
44359;BME280;30077;52.474;13.326;2023-02-20T03:09:14;101275.91;;;3.45;100.00
44359;BME280;30077;52.474;13.326;2023-02-20T03:14:27;101261.78;;;3.48;100.00
44359;BME280;30077;52.474;13.326;2023-02-20T03:19:46;101250.28;;;3.61;100.00
44359;BME280;30077;52.474;13.326;2023-02-20T03:24:49;101239.66;;;3.70;100.00
44359;BME280;30077;52.474;13.326;2023-02-20T03:29:56;101228.16;;;3.79;100.00
44359;BME280;30077;52.474;13.326;2023-02-20T03:34:57;101211.38;;;3.86;100.00
44359;BME280;30077;52.474;13.326;2023-02-20T03:40:17;101211.34;;;3.88;100.00
44359;BME280;30077;52.474;13.326;2023-02-20T03:45:38;101208.66;;;3.95;100.00
44359;BME280;30077;52.474;13.326;2023-02-20T03:50:40;101214.72;;;4.05;100.00
44359;BME280;30077;52.474;13.326;2023-02-20T03:56:00;101216.41;;;4.12;100.00
44359;BME280;30077;52.474;13.326;2023-02-20T04:01:02;101216.47;;;4.07;100.00
44359;BME280;30077;52.474;13.326;2023-02-20T04:06:03;101221.69;;;4.14;100.00
44359;BME280;30077;52.474;13.326;2023-02-20T04:11:13;101228.63;;;4.25;100.00
44359;BME280;30077;52.474;13.326;2023-02-20T04:16:15;101191.66;;;4.25;100.00
44359;BME280;30077;52.474;13.326;2023-02-20T04:21:23;101183.75;;;4.22;100.00
44359;BME280;30077;52.474;13.326;2023-02-20T04:26:26;101196.94;;;4.25;100.00
44359;BME280;30077;52.474;13.326;2023-02-20T04:31:27;101189.81;;;4.30;100.00
44359;BME280;30077;52.474;13.326;2023-02-20T04:36:27;101170.47;;;4.28;100.00
44359;BME280;30077;52.474;13.326;2023-02-20T04:41:27;101165.13;;;4.34;100.00
44359;BME280;30077;52.474;13.326;2023-02-20T04:46:27;101158.03;;;4.40;100.00
44359;BME280;30077;52.474;13.326;2023-02-20T04:51:28;101147.41;;;4.43;100.00
44359;BME280;30077;52.474;13.326;2023-02-20T04:56:28;101162.31;;;4.48;100.00
44359;BME280;30077;52.474;13.326;2023-02-20T05:01:28;101129.63;;;4.57;100.00
44359;BME280;30077;52.474;13.326;2023-02-20T05:06:28;101112.03;;;4.56;100.00
44359;BME280;30077;52.474;13.326;2023-02-20T05:11:28;101104.88;;;4.61;100.00
44359;BME280;30077;52.474;13.326;2023-02-20T05:16:29;101091.59;;;4.67;100.00
44359;BME280;30077;52.474;13.326;2023-02-20T05:21:29;101097.72;;;4.72;100.00
44359;BME280;30077;52.474;13.326;2023-02-20T05:26:48;101091.50;;;4.75;100.00
44359;BME280;30077;52.474;13.326;2023-02-20T05:31:49;101086.19;;;4.75;100.00
44359;BME280;30077;52.474;13.326;2023-02-20T05:36:50;101080.88;;;4.78;100.00
44359;BME280;30077;52.474;13.326;2023-02-20T05:41:50;101087.00;;;4.81;100.00
44359;BME280;30077;52.474;13.326;2023-02-20T05:46:50;101077.28;;;4.83;100.00
44359;BME280;30077;52.474;13.326;2023-02-20T05:51:54;101071.13;;;4.81;100.00
44359;BME280;30077;52.474;13.326;2023-02-20T05:56:55;101064.97;;;4.81;100.00
44359;BME280;30077;52.474;13.326;2023-02-20T06:01:55;101059.72;;;4.79;100.00
44359;BME280;30077;52.474;13.326;2023-02-20T06:06:56;101044.69;;;4.81;100.00
44359;BME280;30077;52.474;13.326;2023-02-20T06:11:56;101020.06;;;4.79;100.00
44359;BME280;30077;52.474;13.326;2023-02-20T06:16:56;101017.34;;;4.84;100.00
44359;BME280;30077;52.474;13.326;2023-02-20T06:21:57;101010.34;;;4.83;100.00
44359;BME280;30077;52.474;13.326;2023-02-20T06:27:00;101011.06;;;4.90;100.00
44359;BME280;30077;52.474;13.326;2023-02-20T06:32:00;101014.59;;;4.92;100.00
44359;BME280;30077;52.474;13.326;2023-02-20T06:37:01;100994.25;;;4.94;100.00
44359;BME280;30077;52.474;13.326;2023-02-20T06:44:51;100987.00;;;5.06;100.00
44359;BME280;30077;52.474;13.326;2023-02-20T06:49:52;101031.00;;;5.12;100.00
44359;BME280;30077;52.474;13.326;2023-02-20T06:54:53;100982.59;;;5.07;100.00
44359;BME280;30077;52.474;13.326;2023-02-20T06:59:53;100978.03;;;5.15;100.00
44359;BME280;30077;52.474;13.326;2023-02-20T07:04:53;100988.38;;;5.29;100.00
44359;BME280;30077;52.474;13.326;2023-02-20T07:09:53;100974.19;;;5.33;100.00
44359;BME280;30077;52.474;13.326;2023-02-20T07:14:55;100972.16;;;5.47;100.00
44359;BME280;30077;52.474;13.326;2023-02-20T07:19:55;100954.28;;;5.60;100.00
44359;BME280;30077;52.474;13.326;2023-02-20T07:24:55;100974.44;;;5.67;100.00
44359;BME280;30077;52.474;13.326;2023-02-20T07:29:55;100953.84;;;5.82;100.00
44359;BME280;30077;52.474;13.326;2023-02-20T07:34:55;100989.78;;;5.92;100.00
44359;BME280;30077;52.474;13.326;2023-02-20T07:39:56;100968.59;;;5.92;100.00
44359;BME280;30077;52.474;13.326;2023-02-20T07:44:56;100951.63;;;6.03;100.00
44359;BME280;30077;52.474;13.326;2023-02-20T07:49:56;100932.84;;;6.14;100.00
44359;BME280;30077;52.474;13.326;2023-02-20T07:54:56;100916.91;;;6.17;100.00
44359;BME280;30077;52.474;13.326;2023-02-20T07:59:56;100923.72;;;6.27;100.00
44359;BME280;30077;52.474;13.326;2023-02-20T08:04:56;100916.53;;;6.33;100.00
44359;BME280;30077;52.474;13.326;2023-02-20T08:09:58;100905.78;;;6.39;100.00
44359;BME280;30077;52.474;13.326;2023-02-20T08:14:58;100879.06;;;6.48;100.00
44359;BME280;30077;52.474;13.326;2023-02-20T08:19:58;100864.06;;;6.47;100.00
44359;BME280;30077;52.474;13.326;2023-02-20T08:24:58;100869.78;;;6.64;100.00
44359;BME280;30077;52.474;13.326;2023-02-20T08:29:59;100858.22;;;6.68;100.00
44359;BME280;30077;52.474;13.326;2023-02-20T08:34:59;100857.31;;;6.69;100.00
44359;BME280;30077;52.474;13.326;2023-02-20T08:39:59;100835.69;;;6.85;99.94
44359;BME280;30077;52.474;13.326;2023-02-20T08:45:00;100837.53;;;6.83;99.21
44359;BME280;30077;52.474;13.326;2023-02-20T08:50:01;100814.03;;;7.00;99.05
44359;BME280;30077;52.474;13.326;2023-02-20T08:55:01;100810.22;;;7.10;97.92
44359;BME280;30077;52.474;13.326;2023-02-20T09:00:03;100795.72;;;7.22;96.89
44359;BME280;30077;52.474;13.326;2023-02-20T09:05:04;100778.38;;;7.41;96.03
44359;BME280;30077;52.474;13.326;2023-02-20T09:10:04;100777.03;;;7.56;94.98
44359;BME280;30077;52.474;13.326;2023-02-20T09:15:04;100758.88;;;7.70;93.53
44359;BME280;30077;52.474;13.326;2023-02-20T09:20:05;100741.00;;;7.76;92.88
44359;BME280;30077;52.474;13.326;2023-02-20T09:25:09;100741.16;;;7.97;91.75
44359;BME280;30077;52.474;13.326;2023-02-20T09:30:13;100741.31;;;8.19;90.45
44359;BME280;30077;52.474;13.326;2023-02-20T09:35:17;100707.16;;;8.34;88.96
44359;BME280;30077;52.474;13.326;2023-02-20T09:40:20;100710.41;;;8.43;87.79
44359;BME280;30077;52.474;13.326;2023-02-20T09:45:22;100698.50;;;8.54;87.45
44359;BME280;30077;52.474;13.326;2023-02-20T09:50:35;100688.19;;;8.70;86.45
44359;BME280;30077;52.474;13.326;2023-02-20T09:55:37;100682.97;;;8.66;86.81
44359;BME280;30077;52.474;13.326;2023-02-20T10:00:39;100676.31;;;8.78;85.44
44359;BME280;30077;52.474;13.326;2023-02-20T10:05:41;100682.59;;;9.01;84.31
44359;BME280;30077;52.474;13.326;2023-02-20T10:10:41;100689.03;;;9.17;82.52
44359;BME280;30077;52.474;13.326;2023-02-20T10:15:47;100680.63;;;9.28;82.38
44359;BME280;30077;52.474;13.326;2023-02-20T10:20:56;100692.38;;;9.22;82.48
44359;BME280;30077;52.474;13.326;2023-02-20T10:25:58;100650.38;;;9.30;84.93
44359;BME280;30077;52.474;13.326;2023-02-20T10:36:10;100649.34;;;9.97;82.32
44359;BME280;30077;52.474;13.326;2023-02-20T10:41:14;100646.03;;;9.92;82.81
44359;BME280;30077;52.474;13.326;2023-02-20T10:51:33;100613.81;;;10.58;80.00
44359;BME280;30077;52.474;13.326;2023-02-20T11:01:37;100602.09;;;10.42;78.02
44359;BME280;30077;52.474;13.326;2023-02-20T11:06:45;100609.22;;;10.41;79.25
44359;BME280;30077;52.474;13.326;2023-02-20T11:11:46;100594.31;;;10.37;79.64
44359;BME280;30077;52.474;13.326;2023-02-20T11:16:57;100606.59;;;10.21;80.96
44359;BME280;30077;52.474;13.326;2023-02-20T11:21:57;100614.31;;;10.06;82.07
44359;BME280;30077;52.474;13.326;2023-02-20T11:27:12;100609.78;;;10.08;82.96
44359;BME280;30077;52.474;13.326;2023-02-20T11:32:30;100593.66;;;10.11;83.33
44359;BME280;30077;52.474;13.326;2023-02-20T11:37:33;100605.03;;;10.15;83.49
44359;BME280;30077;52.474;13.326;2023-02-20T11:42:33;100590.84;;;10.15;83.92
44359;BME280;30077;52.474;13.326;2023-02-20T11:47:34;100581.41;;;10.28;83.97
44359;BME280;30077;52.474;13.326;2023-02-20T11:52:34;100597.56;;;10.23;84.50
44359;BME280;30077;52.474;13.326;2023-02-20T11:57:36;100590.25;;;10.08;86.44
44359;BME280;30077;52.474;13.326;2023-02-20T12:02:46;100598.50;;;10.02;88.12
44359;BME280;30077;52.474;13.326;2023-02-20T12:12:51;100584.19;;;9.84;90.95
44359;BME280;30077;52.474;13.326;2023-02-20T12:23:20;100574.31;;;10.27;90.04
44359;BME280;30077;52.474;13.326;2023-02-20T12:28:26;100582.13;;;10.31;89.81
44359;BME280;30077;52.474;13.326;2023-02-20T12:44:12;100573.81;;;9.78;94.22
44359;BME280;30077;52.474;13.326;2023-02-20T13:04:53;100591.22;;;9.44;100.00
44359;BME280;30077;52.474;13.326;2023-02-20T13:10:03;100578.94;;;9.40;100.00
44359;BME280;30077;52.474;13.326;2023-02-20T13:20:29;100573.53;;;9.21;100.00
44359;BME280;30077;52.474;13.326;2023-02-20T13:30:32;100567.34;;;9.21;100.00
44359;BME280;30077;52.474;13.326;2023-02-20T13:35:54;100581.03;;;9.11;100.00
44359;BME280;30077;52.474;13.326;2023-02-20T13:56:16;100586.38;;;8.88;100.00
44359;BME280;30077;52.474;13.326;2023-02-20T14:01:16;100577.59;;;8.86;100.00
44359;BME280;30077;52.474;13.326;2023-02-20T14:06:17;100578.19;;;8.94;100.00
44359;BME280;30077;52.474;13.326;2023-02-20T14:11:33;100577.13;;;8.98;100.00
44359;BME280;30077;52.474;13.326;2023-02-20T14:16:41;100591.53;;;8.92;100.00
44359;BME280;30077;52.474;13.326;2023-02-20T14:21:43;100578.41;;;8.88;100.00
44359;BME280;30077;52.474;13.326;2023-02-20T14:26:43;100576.56;;;8.90;100.00
44359;BME280;30077;52.474;13.326;2023-02-20T14:31:43;100588.00;;;8.92;100.00
44359;BME280;30077;52.474;13.326;2023-02-20T14:36:49;100593.31;;;8.92;100.00
44359;BME280;30077;52.474;13.326;2023-02-20T14:41:54;100596.09;;;8.89;100.00
44359;BME280;30077;52.474;13.326;2023-02-20T14:46:58;100592.69;;;8.85;100.00
44359;BME280;30077;52.474;13.326;2023-02-20T14:57:04;100576.72;;;9.07;100.00
44359;BME280;30077;52.474;13.326;2023-02-20T15:07:05;100574.66;;;9.15;100.00
44359;BME280;30077;52.474;13.326;2023-02-20T15:12:06;100564.91;;;9.14;100.00
44359;BME280;30077;52.474;13.326;2023-02-20T15:17:18;100575.72;;;9.11;100.00
44359;BME280;30077;52.474;13.326;2023-02-20T15:22:27;100586.47;;;9.08;100.00
44359;BME280;30077;52.474;13.326;2023-02-20T15:27:28;100565.97;;;9.10;100.00
44359;BME280;30077;52.474;13.326;2023-02-20T15:32:32;100572.53;;;9.02;100.00
44359;BME280;30077;52.474;13.326;2023-02-20T15:37:33;100564.59;;;9.00;100.00
44359;BME280;30077;52.474;13.326;2023-02-20T15:42:33;100557.69;;;8.96;100.00
44359;BME280;30077;52.474;13.326;2023-02-20T15:47:34;100549.66;;;8.98;100.00
44359;BME280;30077;52.474;13.326;2023-02-20T15:52:34;100568.44;;;8.93;100.00
44359;BME280;30077;52.474;13.326;2023-02-20T15:57:34;100554.34;;;8.91;100.00
44359;BME280;30077;52.474;13.326;2023-02-20T16:02:34;100556.81;;;8.96;100.00
44359;BME280;30077;52.474;13.326;2023-02-20T16:07:35;100562.53;;;8.86;100.00
44359;BME280;30077;52.474;13.326;2023-02-20T16:12:35;100566.94;;;8.86;100.00
44359;BME280;30077;52.474;13.326;2023-02-20T16:17:36;100550.31;;;8.81;100.00
44359;BME280;30077;52.474;13.326;2023-02-20T16:22:36;100556.56;;;8.80;100.00
44359;BME280;30077;52.474;13.326;2023-02-20T16:27:36;100566.22;;;8.82;100.00
44359;BME280;30077;52.474;13.326;2023-02-20T16:32:37;100563.69;;;8.79;100.00
44359;BME280;30077;52.474;13.326;2023-02-20T16:37:37;100566.47;;;8.76;100.00
44359;BME280;30077;52.474;13.326;2023-02-20T16:42:37;100561.88;;;8.80;100.00
44359;BME280;30077;52.474;13.326;2023-02-20T16:47:38;100548.25;;;8.65;100.00
44359;BME280;30077;52.474;13.326;2023-02-20T16:52:39;100556.16;;;8.67;100.00
44359;BME280;30077;52.474;13.326;2023-02-20T16:57:40;100574.47;;;8.75;100.00
44359;BME280;30077;52.474;13.326;2023-02-20T17:02:40;100568.59;;;8.66;100.00
44359;BME280;30077;52.474;13.326;2023-02-20T17:07:40;100580.28;;;8.62;100.00
44359;BME280;30077;52.474;13.326;2023-02-20T17:12:41;100571.25;;;8.66;100.00
44359;BME280;30077;52.474;13.326;2023-02-20T17:17:41;100585.38;;;8.68;100.00
44359;BME280;30077;52.474;13.326;2023-02-20T17:22:42;100573.25;;;8.61;100.00
44359;BME280;30077;52.474;13.326;2023-02-20T17:27:43;100581.69;;;8.73;100.00
44359;BME280;30077;52.474;13.326;2023-02-20T17:32:43;100586.91;;;8.74;100.00
44359;BME280;30077;52.474;13.326;2023-02-20T17:37:43;100580.94;;;8.69;100.00
44359;BME280;30077;52.474;13.326;2023-02-20T17:42:43;100585.28;;;8.72;100.00
44359;BME280;30077;52.474;13.326;2023-02-20T17:47:43;100588.19;;;8.64;100.00
44359;BME280;30077;52.474;13.326;2023-02-20T17:52:44;100585.59;;;8.62;100.00
44359;BME280;30077;52.474;13.326;2023-02-20T17:57:44;100595.50;;;8.59;100.00
44359;BME280;30077;52.474;13.326;2023-02-20T18:02:45;100597.06;;;8.41;100.00
44359;BME280;30077;52.474;13.326;2023-02-20T18:07:45;100592.75;;;8.37;100.00
44359;BME280;30077;52.474;13.326;2023-02-20T18:12:45;100588.34;;;8.36;100.00
44359;BME280;30077;52.474;13.326;2023-02-20T18:18:01;100600.81;;;8.34;100.00
44359;BME280;30077;52.474;13.326;2023-02-20T18:23:01;100600.19;;;8.27;100.00
44359;BME280;30077;52.474;13.326;2023-02-20T18:28:01;100601.28;;;8.22;100.00
44359;BME280;30077;52.474;13.326;2023-02-20T18:33:02;100598.72;;;8.18;100.00
44359;BME280;30077;52.474;13.326;2023-02-20T18:38:02;100588.88;;;8.22;100.00
44359;BME280;30077;52.474;13.326;2023-02-20T18:43:02;100586.59;;;8.11;100.00
44359;BME280;30077;52.474;13.326;2023-02-20T18:48:02;100594.47;;;8.14;100.00
44359;BME280;30077;52.474;13.326;2023-02-20T18:53:03;100582.41;;;8.04;100.00
44359;BME280;30077;52.474;13.326;2023-02-20T18:58:03;100595.22;;;7.93;100.00
44359;BME280;30077;52.474;13.326;2023-02-20T19:03:03;100579.97;;;7.98;100.00
44359;BME280;30077;52.474;13.326;2023-02-20T19:08:04;100581.44;;;7.82;100.00
44359;BME280;30077;52.474;13.326;2023-02-20T19:13:04;100567.34;;;7.80;100.00
44359;BME280;30077;52.474;13.326;2023-02-20T19:18:04;100559.38;;;7.80;100.00
44359;BME280;30077;52.474;13.326;2023-02-20T19:23:05;100565.72;;;7.76;100.00
44359;BME280;30077;52.474;13.326;2023-02-20T19:28:05;100552.41;;;7.77;100.00
44359;BME280;30077;52.474;13.326;2023-02-20T19:33:06;100537.22;;;7.81;100.00
44359;BME280;30077;52.474;13.326;2023-02-20T19:38:06;100546.09;;;7.80;100.00
44359;BME280;30077;52.474;13.326;2023-02-20T19:43:06;100553.97;;;7.83;100.00
44359;BME280;30077;52.474;13.326;2023-02-20T19:48:06;100536.78;;;7.93;100.00
44359;BME280;30077;52.474;13.326;2023-02-20T19:53:06;100534.91;;;7.95;100.00
44359;BME280;30077;52.474;13.326;2023-02-20T19:58:07;100533.31;;;7.91;100.00
44359;BME280;30077;52.474;13.326;2023-02-20T20:03:07;100523.28;;;7.99;100.00
44359;BME280;30077;52.474;13.326;2023-02-20T20:08:07;100513.34;;;8.04;100.00
44359;BME280;30077;52.474;13.326;2023-02-20T20:13:07;100536.09;;;8.11;100.00
44359;BME280;30077;52.474;13.326;2023-02-20T20:18:08;100525.25;;;8.17;100.00
44359;BME280;30077;52.474;13.326;2023-02-20T20:23:08;100527.56;;;8.27;100.00
44359;BME280;30077;52.474;13.326;2023-02-20T20:28:08;100526.59;;;8.29;100.00
44359;BME280;30077;52.474;13.326;2023-02-20T20:33:09;100528.94;;;8.37;100.00
44359;BME280;30077;52.474;13.326;2023-02-20T20:38:09;100534.19;;;8.40;100.00
44359;BME280;30077;52.474;13.326;2023-02-20T20:43:09;100528.50;;;8.49;100.00
44359;BME280;30077;52.474;13.326;2023-02-20T20:48:11;100527.44;;;8.53;100.00
44359;BME280;30077;52.474;13.326;2023-02-20T20:53:12;100527.44;;;8.53;100.00
44359;BME280;30077;52.474;13.326;2023-02-20T20:58:12;100524.53;;;8.61;100.00
44359;BME280;30077;52.474;13.326;2023-02-20T21:03:12;100514.16;;;8.53;100.00
44359;BME280;30077;52.474;13.326;2023-02-20T21:08:15;100514.84;;;8.58;100.00
44359;BME280;30077;52.474;13.326;2023-02-20T21:13:15;100509.66;;;8.55;100.00
44359;BME280;30077;52.474;13.326;2023-02-20T21:18:15;100511.97;;;8.64;100.00
44359;BME280;30077;52.474;13.326;2023-02-20T21:23:15;100521.56;;;8.68;100.00
44359;BME280;30077;52.474;13.326;2023-02-20T21:28:15;100507.50;;;8.65;100.00
44359;BME280;30077;52.474;13.326;2023-02-20T21:33:15;100503.06;;;8.65;100.00
44359;BME280;30077;52.474;13.326;2023-02-20T21:38:16;100512.75;;;8.66;100.00
44359;BME280;30077;52.474;13.326;2023-02-20T21:43:16;100499.97;;;8.76;100.00
44359;BME280;30077;52.474;13.326;2023-02-20T21:48:35;100495.81;;;8.69;100.00
44359;BME280;30077;52.474;13.326;2023-02-20T21:53:35;100507.44;;;8.66;100.00
44359;BME280;30077;52.474;13.326;2023-02-20T21:58:35;100507.44;;;8.66;100.00
44359;BME280;30077;52.474;13.326;2023-02-20T22:03:54;100501.19;;;8.67;100.00
44359;BME280;30077;52.474;13.326;2023-02-20T22:08:54;100509.31;;;8.64;100.00
44359;BME280;30077;52.474;13.326;2023-02-20T22:14:14;100513.50;;;8.70;100.00
44359;BME280;30077;52.474;13.326;2023-02-20T22:19:33;100495.69;;;8.72;100.00
44359;BME280;30077;52.474;13.326;2023-02-20T22:24:51;100489.88;;;8.62;100.00
44359;BME280;30077;52.474;13.326;2023-02-20T22:30:11;100492.47;;;8.64;100.00
44359;BME280;30077;52.474;13.326;2023-02-20T22:35:29;100502.50;;;8.57;100.00
44359;BME280;30077;52.474;13.326;2023-02-20T22:40:48;100487.97;;;8.66;100.00
44359;BME280;30077;52.474;13.326;2023-02-20T22:46:07;100492.59;;;8.61;100.00
44359;BME280;30077;52.474;13.326;2023-02-20T22:51:27;100500.50;;;8.62;100.00
44359;BME280;30077;52.474;13.326;2023-02-20T22:56:45;100506.66;;;8.64;100.00
44359;BME280;30077;52.474;13.326;2023-02-20T23:02:04;100520.81;;;8.65;100.00
44359;BME280;30077;52.474;13.326;2023-02-20T23:07:25;100513.94;;;8.59;100.00
44359;BME280;30077;52.474;13.326;2023-02-20T23:12:44;100508.72;;;8.56;100.00
44359;BME280;30077;52.474;13.326;2023-02-20T23:18:03;100520.41;;;8.52;100.00
44359;BME280;30077;52.474;13.326;2023-02-20T23:23:23;100511.56;;;8.52;100.00
44359;BME280;30077;52.474;13.326;2023-02-20T23:28:42;100522.13;;;8.53;100.00
44359;BME280;30077;52.474;13.326;2023-02-20T23:34:01;100527.34;;;8.56;100.00
44359;BME280;30077;52.474;13.326;2023-02-20T23:39:20;100530.59;;;8.41;100.00
44359;BME280;30077;52.474;13.326;2023-02-20T23:44:39;100533.34;;;8.38;100.00
44359;BME280;30077;52.474;13.326;2023-02-20T23:49:58;100537.41;;;8.25;100.00
44359;BME280;30077;52.474;13.326;2023-02-20T23:55:17;100540.94;;;8.24;100.00
